sensor_id;sensor_type;location;lat;lon;timestamp;P1;durP1;ratioP1;P2;durP2;ratioP2
46651;SDS011;32377;52.182;5.398;2024-03-22T00:01:44;70.68;;;36.50;;
46651;SDS011;32377;52.182;5.398;2024-03-22T00:04:10;61.72;;;34.50;;
46651;SDS011;32377;52.182;5.398;2024-03-22T00:06:36;66.93;;;36.40;;
46651;SDS011;32377;52.182;5.398;2024-03-22T00:09:02;67.60;;;36.72;;
46651;SDS011;32377;52.182;5.398;2024-03-22T00:11:28;61.75;;;34.28;;
46651;SDS011;32377;52.182;5.398;2024-03-22T00:13:53;63.67;;;36.17;;
46651;SDS011;32377;52.182;5.398;2024-03-22T00:16:19;61.33;;;34.47;;
46651;SDS011;32377;52.182;5.398;2024-03-22T00:18:45;63.60;;;34.42;;
46651;SDS011;32377;52.182;5.398;2024-03-22T00:21:10;60.92;;;35.33;;
46651;SDS011;32377;52.182;5.398;2024-03-22T00:23:36;64.57;;;35.53;;
46651;SDS011;32377;52.182;5.398;2024-03-22T00:26:01;66.32;;;35.22;;
46651;SDS011;32377;52.182;5.398;2024-03-22T00:28:27;66.25;;;33.92;;
46651;SDS011;32377;52.182;5.398;2024-03-22T00:30:53;70.30;;;36.35;;
46651;SDS011;32377;52.182;5.398;2024-03-22T00:33:18;64.32;;;35.30;;
46651;SDS011;32377;52.182;5.398;2024-03-22T00:35:44;61.47;;;33.92;;
46651;SDS011;32377;52.182;5.398;2024-03-22T00:38:09;63.60;;;35.17;;
46651;SDS011;32377;52.182;5.398;2024-03-22T00:40:35;67.55;;;36.92;;
46651;SDS011;32377;52.182;5.398;2024-03-22T00:43:00;66.38;;;35.70;;
46651;SDS011;32377;52.182;5.398;2024-03-22T00:45:26;62.92;;;36.60;;
46651;SDS011;32377;52.182;5.398;2024-03-22T00:47:52;62.25;;;34.00;;
46651;SDS011;32377;52.182;5.398;2024-03-22T00:50:17;62.50;;;36.00;;
46651;SDS011;32377;52.182;5.398;2024-03-22T00:52:43;61.28;;;34.35;;
46651;SDS011;32377;52.182;5.398;2024-03-22T00:55:09;62.00;;;34.47;;
46651;SDS011;32377;52.182;5.398;2024-03-22T00:57:34;65.47;;;35.47;;
46651;SDS011;32377;52.182;5.398;2024-03-22T01:00:00;77.45;;;38.17;;
46651;SDS011;32377;52.182;5.398;2024-03-22T01:02:25;69.90;;;37.03;;
46651;SDS011;32377;52.182;5.398;2024-03-22T01:04:51;70.53;;;36.38;;
46651;SDS011;32377;52.182;5.398;2024-03-22T01:07:16;68.60;;;37.83;;
46651;SDS011;32377;52.182;5.398;2024-03-22T01:09:42;68.90;;;36.20;;
46651;SDS011;32377;52.182;5.398;2024-03-22T01:12:09;66.70;;;37.10;;
46651;SDS011;32377;52.182;5.398;2024-03-22T01:14:35;71.75;;;38.72;;
46651;SDS011;32377;52.182;5.398;2024-03-22T01:17:01;67.65;;;37.40;;
46651;SDS011;32377;52.182;5.398;2024-03-22T01:19:26;73.28;;;39.55;;
46651;SDS011;32377;52.182;5.398;2024-03-22T01:21:52;76.22;;;37.58;;
46651;SDS011;32377;52.182;5.398;2024-03-22T01:24:17;75.68;;;38.47;;
46651;SDS011;32377;52.182;5.398;2024-03-22T01:26:43;72.93;;;37.90;;
46651;SDS011;32377;52.182;5.398;2024-03-22T01:29:08;74.68;;;38.95;;
46651;SDS011;32377;52.182;5.398;2024-03-22T01:31:34;74.03;;;37.75;;
46651;SDS011;32377;52.182;5.398;2024-03-22T01:33:59;78.45;;;39.00;;
46651;SDS011;32377;52.182;5.398;2024-03-22T01:36:25;73.18;;;38.72;;
46651;SDS011;32377;52.182;5.398;2024-03-22T01:38:51;67.60;;;35.40;;
46651;SDS011;32377;52.182;5.398;2024-03-22T01:41:16;72.70;;;36.67;;
46651;SDS011;32377;52.182;5.398;2024-03-22T01:43:43;69.65;;;37.13;;
46651;SDS011;32377;52.182;5.398;2024-03-22T01:46:08;74.57;;;38.38;;
46651;SDS011;32377;52.182;5.398;2024-03-22T01:48:34;70.35;;;36.40;;
46651;SDS011;32377;52.182;5.398;2024-03-22T01:51:00;63.22;;;34.88;;
46651;SDS011;32377;52.182;5.398;2024-03-22T01:53:27;66.57;;;36.28;;
46651;SDS011;32377;52.182;5.398;2024-03-22T01:55:53;74.00;;;36.28;;
46651;SDS011;32377;52.182;5.398;2024-03-22T01:58:18;61.50;;;35.08;;
46651;SDS011;32377;52.182;5.398;2024-03-22T02:00:44;67.93;;;36.10;;
46651;SDS011;32377;52.182;5.398;2024-03-22T02:03:10;60.90;;;33.30;;
46651;SDS011;32377;52.182;5.398;2024-03-22T02:05:36;70.90;;;38.83;;
46651;SDS011;32377;52.182;5.398;2024-03-22T02:08:01;64.93;;;35.58;;
46651;SDS011;32377;52.182;5.398;2024-03-22T02:10:27;67.53;;;35.60;;
46651;SDS011;32377;52.182;5.398;2024-03-22T02:12:53;67.55;;;36.45;;
46651;SDS011;32377;52.182;5.398;2024-03-22T02:15:19;66.38;;;35.70;;
46651;SDS011;32377;52.182;5.398;2024-03-22T02:17:44;74.40;;;38.75;;
46651;SDS011;32377;52.182;5.398;2024-03-22T02:20:10;71.65;;;38.67;;
46651;SDS011;32377;52.182;5.398;2024-03-22T02:22:37;73.88;;;39.05;;
46651;SDS011;32377;52.182;5.398;2024-03-22T02:25:03;69.30;;;37.85;;
46651;SDS011;32377;52.182;5.398;2024-03-22T02:27:29;74.32;;;40.28;;
46651;SDS011;32377;52.182;5.398;2024-03-22T02:29:55;77.38;;;41.72;;
46651;SDS011;32377;52.182;5.398;2024-03-22T02:32:20;79.82;;;40.72;;
46651;SDS011;32377;52.182;5.398;2024-03-22T02:34:46;74.68;;;41.33;;
46651;SDS011;32377;52.182;5.398;2024-03-22T02:37:11;75.68;;;42.17;;
46651;SDS011;32377;52.182;5.398;2024-03-22T02:39:37;80.38;;;42.30;;
46651;SDS011;32377;52.182;5.398;2024-03-22T02:42:03;82.57;;;43.67;;
46651;SDS011;32377;52.182;5.398;2024-03-22T02:44:28;84.57;;;43.67;;
46651;SDS011;32377;52.182;5.398;2024-03-22T02:46:54;89.57;;;48.22;;
46651;SDS011;32377;52.182;5.398;2024-03-22T02:49:20;91.90;;;47.47;;
46651;SDS011;32377;52.182;5.398;2024-03-22T02:51:45;89.20;;;46.17;;
46651;SDS011;32377;52.182;5.398;2024-03-22T02:54:11;91.38;;;46.45;;
46651;SDS011;32377;52.182;5.398;2024-03-22T02:56:36;95.40;;;45.85;;
46651;SDS011;32377;52.182;5.398;2024-03-22T02:59:02;96.18;;;49.22;;
46651;SDS011;32377;52.182;5.398;2024-03-22T03:01:27;100.22;;;49.90;;
46651;SDS011;32377;52.182;5.398;2024-03-22T03:03:53;94.72;;;46.85;;
46651;SDS011;32377;52.182;5.398;2024-03-22T03:06:19;104.63;;;50.20;;
46651;SDS011;32377;52.182;5.398;2024-03-22T03:08:45;99.13;;;48.50;;
46651;SDS011;32377;52.182;5.398;2024-03-22T03:11:10;103.45;;;50.88;;
46651;SDS011;32377;52.182;5.398;2024-03-22T03:13:36;89.13;;;46.33;;
46651;SDS011;32377;52.182;5.398;2024-03-22T03:16:02;97.53;;;46.33;;
46651;SDS011;32377;52.182;5.398;2024-03-22T03:18:28;100.82;;;46.40;;
46651;SDS011;32377;52.182;5.398;2024-03-22T03:20:54;92.18;;;46.58;;
46651;SDS011;32377;52.182;5.398;2024-03-22T03:23:19;95.55;;;47.20;;
46651;SDS011;32377;52.182;5.398;2024-03-22T03:25:45;93.70;;;46.25;;
46651;SDS011;32377;52.182;5.398;2024-03-22T03:28:11;87.53;;;43.88;;
46651;SDS011;32377;52.182;5.398;2024-03-22T03:30:38;90.85;;;44.78;;
46651;SDS011;32377;52.182;5.398;2024-03-22T03:33:04;86.07;;;41.92;;
46651;SDS011;32377;52.182;5.398;2024-03-22T03:35:29;85.10;;;43.78;;
46651;SDS011;32377;52.182;5.398;2024-03-22T03:37:55;85.07;;;42.55;;
46651;SDS011;32377;52.182;5.398;2024-03-22T03:40:21;82.97;;;42.33;;
46651;SDS011;32377;52.182;5.398;2024-03-22T03:42:49;88.07;;;40.03;;
46651;SDS011;32377;52.182;5.398;2024-03-22T03:45:15;82.30;;;42.22;;
46651;SDS011;32377;52.182;5.398;2024-03-22T03:47:41;86.07;;;42.28;;
46651;SDS011;32377;52.182;5.398;2024-03-22T03:50:06;84.97;;;41.60;;
46651;SDS011;32377;52.182;5.398;2024-03-22T03:52:32;81.40;;;41.15;;
46651;SDS011;32377;52.182;5.398;2024-03-22T03:54:58;82.63;;;38.15;;
46651;SDS011;32377;52.182;5.398;2024-03-22T03:57:23;80.45;;;39.53;;
46651;SDS011;32377;52.182;5.398;2024-03-22T03:59:49;74.07;;;37.35;;
46651;SDS011;32377;52.182;5.398;2024-03-22T04:02:14;79.55;;;37.08;;
46651;SDS011;32377;52.182;5.398;2024-03-22T04:04:40;74.10;;;37.42;;
46651;SDS011;32377;52.182;5.398;2024-03-22T04:07:06;79.95;;;37.10;;
46651;SDS011;32377;52.182;5.398;2024-03-22T04:09:31;71.50;;;36.45;;
46651;SDS011;32377;52.182;5.398;2024-03-22T04:11:58;76.30;;;37.05;;
46651;SDS011;32377;52.182;5.398;2024-03-22T04:14:24;71.95;;;36.22;;
46651;SDS011;32377;52.182;5.398;2024-03-22T04:16:50;74.18;;;37.15;;
46651;SDS011;32377;52.182;5.398;2024-03-22T04:19:16;80.03;;;35.60;;
46651;SDS011;32377;52.182;5.398;2024-03-22T04:21:42;69.03;;;34.83;;
46651;SDS011;32377;52.182;5.398;2024-03-22T04:24:07;75.55;;;36.17;;
46651;SDS011;32377;52.182;5.398;2024-03-22T04:26:33;69.72;;;35.30;;
46651;SDS011;32377;52.182;5.398;2024-03-22T04:28:58;69.68;;;34.67;;
46651;SDS011;32377;52.182;5.398;2024-03-22T04:31:24;68.20;;;32.15;;
46651;SDS011;32377;52.182;5.398;2024-03-22T04:33:50;71.85;;;34.33;;
46651;SDS011;32377;52.182;5.398;2024-03-22T04:36:15;68.40;;;32.95;;
46651;SDS011;32377;52.182;5.398;2024-03-22T04:38:41;68.70;;;33.67;;
46651;SDS011;32377;52.182;5.398;2024-03-22T04:41:06;65.43;;;31.52;;
46651;SDS011;32377;52.182;5.398;2024-03-22T04:43:32;68.38;;;32.97;;
46651;SDS011;32377;52.182;5.398;2024-03-22T04:45:58;64.60;;;32.13;;
46651;SDS011;32377;52.182;5.398;2024-03-22T04:48:23;63.88;;;31.13;;
46651;SDS011;32377;52.182;5.398;2024-03-22T04:50:49;66.68;;;31.52;;
46651;SDS011;32377;52.182;5.398;2024-03-22T04:53:16;64.30;;;31.70;;
46651;SDS011;32377;52.182;5.398;2024-03-22T04:58:51;59.25;;;30.52;;
46651;SDS011;32377;52.182;5.398;2024-03-22T05:01:17;62.72;;;29.92;;
46651;SDS011;32377;52.182;5.398;2024-03-22T05:03:42;62.20;;;29.38;;
46651;SDS011;32377;52.182;5.398;2024-03-22T05:06:08;58.30;;;29.15;;
46651;SDS011;32377;52.182;5.398;2024-03-22T05:08:34;66.30;;;30.88;;
46651;SDS011;32377;52.182;5.398;2024-03-22T05:10:59;67.50;;;31.17;;
46651;SDS011;32377;52.182;5.398;2024-03-22T05:13:25;62.15;;;30.25;;
46651;SDS011;32377;52.182;5.398;2024-03-22T05:15:51;58.28;;;31.08;;
46651;SDS011;32377;52.182;5.398;2024-03-22T05:18:16;60.25;;;30.13;;
46651;SDS011;32377;52.182;5.398;2024-03-22T05:20:42;63.17;;;32.55;;
46651;SDS011;32377;52.182;5.398;2024-03-22T05:23:08;59.95;;;30.40;;
46651;SDS011;32377;52.182;5.398;2024-03-22T05:25:33;63.10;;;30.42;;
46651;SDS011;32377;52.182;5.398;2024-03-22T05:27:59;62.97;;;32.90;;
46651;SDS011;32377;52.182;5.398;2024-03-22T05:30:24;68.13;;;33.30;;
46651;SDS011;32377;52.182;5.398;2024-03-22T05:32:50;74.85;;;34.65;;
46651;SDS011;32377;52.182;5.398;2024-03-22T05:35:16;74.07;;;36.42;;
46651;SDS011;32377;52.182;5.398;2024-03-22T05:37:41;74.00;;;36.25;;
46651;SDS011;32377;52.182;5.398;2024-03-22T05:40:07;77.65;;;37.58;;
46651;SDS011;32377;52.182;5.398;2024-03-22T05:42:33;78.00;;;37.47;;
46651;SDS011;32377;52.182;5.398;2024-03-22T05:44:59;77.80;;;36.53;;
46651;SDS011;32377;52.182;5.398;2024-03-22T05:47:25;74.07;;;36.60;;
46651;SDS011;32377;52.182;5.398;2024-03-22T05:49:51;76.00;;;37.65;;
46651;SDS011;32377;52.182;5.398;2024-03-22T05:52:17;77.53;;;38.55;;
46651;SDS011;32377;52.182;5.398;2024-03-22T05:54:42;80.25;;;39.70;;
46651;SDS011;32377;52.182;5.398;2024-03-22T05:57:08;80.13;;;39.03;;
46651;SDS011;32377;52.182;5.398;2024-03-22T05:59:34;71.10;;;35.90;;
46651;SDS011;32377;52.182;5.398;2024-03-22T06:02:00;81.57;;;37.55;;
46651;SDS011;32377;52.182;5.398;2024-03-22T06:04:26;79.53;;;36.70;;
46651;SDS011;32377;52.182;5.398;2024-03-22T06:06:51;72.45;;;36.72;;
46651;SDS011;32377;52.182;5.398;2024-03-22T06:09:17;77.80;;;37.72;;
46651;SDS011;32377;52.182;5.398;2024-03-22T06:11:52;73.00;;;35.67;;
46651;SDS011;32377;52.182;5.398;2024-03-22T06:14:18;71.85;;;33.88;;
46651;SDS011;32377;52.182;5.398;2024-03-22T06:16:43;65.18;;;33.95;;
46651;SDS011;32377;52.182;5.398;2024-03-22T06:19:09;69.45;;;34.00;;
46651;SDS011;32377;52.182;5.398;2024-03-22T06:21:34;70.35;;;33.25;;
46651;SDS011;32377;52.182;5.398;2024-03-22T06:24:00;72.03;;;33.63;;
46651;SDS011;32377;52.182;5.398;2024-03-22T06:26:26;66.15;;;30.95;;
46651;SDS011;32377;52.182;5.398;2024-03-22T06:28:51;71.97;;;34.33;;
46651;SDS011;32377;52.182;5.398;2024-03-22T06:31:17;63.78;;;33.47;;
46651;SDS011;32377;52.182;5.398;2024-03-22T06:33:42;68.05;;;33.17;;
46651;SDS011;32377;52.182;5.398;2024-03-22T06:36:08;69.47;;;33.00;;
46651;SDS011;32377;52.182;5.398;2024-03-22T06:38:34;63.10;;;32.50;;
46651;SDS011;32377;52.182;5.398;2024-03-22T06:40:59;65.63;;;34.22;;
46651;SDS011;32377;52.182;5.398;2024-03-22T06:43:25;61.78;;;32.55;;
46651;SDS011;32377;52.182;5.398;2024-03-22T06:45:51;63.80;;;32.60;;
46651;SDS011;32377;52.182;5.398;2024-03-22T06:48:16;63.03;;;33.13;;
46651;SDS011;32377;52.182;5.398;2024-03-22T06:50:42;60.25;;;32.15;;
46651;SDS011;32377;52.182;5.398;2024-03-22T06:53:08;66.72;;;31.20;;
46651;SDS011;32377;52.182;5.398;2024-03-22T06:55:35;62.00;;;30.13;;
46651;SDS011;32377;52.182;5.398;2024-03-22T06:58:01;60.58;;;29.50;;
46651;SDS011;32377;52.182;5.398;2024-03-22T07:00:26;58.30;;;29.73;;
46651;SDS011;32377;52.182;5.398;2024-03-22T07:02:52;57.67;;;30.27;;
46651;SDS011;32377;52.182;5.398;2024-03-22T07:05:17;57.33;;;27.70;;
46651;SDS011;32377;52.182;5.398;2024-03-22T07:07:43;57.63;;;27.88;;
46651;SDS011;32377;52.182;5.398;2024-03-22T07:10:09;56.17;;;26.23;;
46651;SDS011;32377;52.182;5.398;2024-03-22T07:12:34;55.42;;;27.08;;
46651;SDS011;32377;52.182;5.398;2024-03-22T07:15:00;51.28;;;25.02;;
46651;SDS011;32377;52.182;5.398;2024-03-22T07:17:27;49.03;;;23.63;;
46651;SDS011;32377;52.182;5.398;2024-03-22T07:19:53;51.72;;;22.95;;
46651;SDS011;32377;52.182;5.398;2024-03-22T07:22:19;50.75;;;22.73;;
46651;SDS011;32377;52.182;5.398;2024-03-22T07:24:45;47.80;;;22.40;;
46651;SDS011;32377;52.182;5.398;2024-03-22T07:27:12;47.70;;;22.50;;
46651;SDS011;32377;52.182;5.398;2024-03-22T07:29:39;47.90;;;23.50;;
46651;SDS011;32377;52.182;5.398;2024-03-22T07:32:04;40.20;;;21.48;;
46651;SDS011;32377;52.182;5.398;2024-03-22T07:34:31;44.95;;;22.70;;
46651;SDS011;32377;52.182;5.398;2024-03-22T07:36:56;45.72;;;22.30;;
46651;SDS011;32377;52.182;5.398;2024-03-22T07:39:22;49.78;;;24.05;;
46651;SDS011;32377;52.182;5.398;2024-03-22T07:41:48;46.22;;;21.52;;
46651;SDS011;32377;52.182;5.398;2024-03-22T07:44:15;47.08;;;24.10;;
46651;SDS011;32377;52.182;5.398;2024-03-22T07:46:42;50.83;;;23.75;;
46651;SDS011;32377;52.182;5.398;2024-03-22T07:49:12;51.80;;;22.63;;
46651;SDS011;32377;52.182;5.398;2024-03-22T07:51:38;44.03;;;20.70;;
46651;SDS011;32377;52.182;5.398;2024-03-22T07:54:03;53.70;;;22.67;;
46651;SDS011;32377;52.182;5.398;2024-03-22T07:56:29;43.08;;;19.63;;
46651;SDS011;32377;52.182;5.398;2024-03-22T07:58:55;39.47;;;20.58;;
46651;SDS011;32377;52.182;5.398;2024-03-22T08:01:21;43.33;;;22.65;;
46651;SDS011;32377;52.182;5.398;2024-03-22T08:03:46;46.58;;;21.38;;
46651;SDS011;32377;52.182;5.398;2024-03-22T08:06:12;42.95;;;21.30;;
46651;SDS011;32377;52.182;5.398;2024-03-22T08:08:38;48.08;;;21.27;;
46651;SDS011;32377;52.182;5.398;2024-03-22T08:11:03;45.13;;;20.55;;
46651;SDS011;32377;52.182;5.398;2024-03-22T08:13:29;43.75;;;20.30;;
46651;SDS011;32377;52.182;5.398;2024-03-22T08:15:55;44.72;;;21.30;;
46651;SDS011;32377;52.182;5.398;2024-03-22T08:18:20;43.90;;;20.45;;
46651;SDS011;32377;52.182;5.398;2024-03-22T08:20:46;42.03;;;20.90;;
46651;SDS011;32377;52.182;5.398;2024-03-22T08:23:11;41.92;;;19.23;;
46651;SDS011;32377;52.182;5.398;2024-03-22T08:25:37;43.33;;;19.63;;
46651;SDS011;32377;52.182;5.398;2024-03-22T08:28:03;40.85;;;18.95;;
46651;SDS011;32377;52.182;5.398;2024-03-22T08:30:29;44.42;;;19.35;;
46651;SDS011;32377;52.182;5.398;2024-03-22T08:32:55;50.95;;;20.67;;
46651;SDS011;32377;52.182;5.398;2024-03-22T08:35:20;41.58;;;19.48;;
46651;SDS011;32377;52.182;5.398;2024-03-22T08:37:46;39.25;;;17.88;;
46651;SDS011;32377;52.182;5.398;2024-03-22T08:40:11;42.58;;;18.10;;
46651;SDS011;32377;52.182;5.398;2024-03-22T08:42:38;47.20;;;17.88;;
46651;SDS011;32377;52.182;5.398;2024-03-22T08:45:04;37.28;;;17.90;;
46651;SDS011;32377;52.182;5.398;2024-03-22T08:47:30;35.83;;;16.95;;
46651;SDS011;32377;52.182;5.398;2024-03-22T08:49:58;40.42;;;15.38;;
46651;SDS011;32377;52.182;5.398;2024-03-22T08:52:24;35.05;;;17.45;;
46651;SDS011;32377;52.182;5.398;2024-03-22T08:54:50;39.72;;;17.63;;
46651;SDS011;32377;52.182;5.398;2024-03-22T08:57:17;38.28;;;17.90;;
46651;SDS011;32377;52.182;5.398;2024-03-22T08:59:42;42.30;;;17.77;;
46651;SDS011;32377;52.182;5.398;2024-03-22T09:02:08;41.80;;;17.65;;
46651;SDS011;32377;52.182;5.398;2024-03-22T09:04:34;36.40;;;17.98;;
46651;SDS011;32377;52.182;5.398;2024-03-22T09:07:00;36.38;;;17.13;;
46651;SDS011;32377;52.182;5.398;2024-03-22T09:09:25;45.60;;;18.08;;
46651;SDS011;32377;52.182;5.398;2024-03-22T09:11:51;37.88;;;17.25;;
46651;SDS011;32377;52.182;5.398;2024-03-22T09:14:16;34.03;;;17.35;;
46651;SDS011;32377;52.182;5.398;2024-03-22T09:16:42;36.58;;;17.58;;
46651;SDS011;32377;52.182;5.398;2024-03-22T09:19:07;34.33;;;16.50;;
46651;SDS011;32377;52.182;5.398;2024-03-22T09:21:33;36.50;;;17.00;;
46651;SDS011;32377;52.182;5.398;2024-03-22T09:23:59;33.13;;;16.80;;
46651;SDS011;32377;52.182;5.398;2024-03-22T09:26:25;34.35;;;16.67;;
46651;SDS011;32377;52.182;5.398;2024-03-22T09:28:51;34.05;;;16.27;;
46651;SDS011;32377;52.182;5.398;2024-03-22T09:31:17;37.08;;;17.33;;
46651;SDS011;32377;52.182;5.398;2024-03-22T09:33:42;35.67;;;16.00;;
46651;SDS011;32377;52.182;5.398;2024-03-22T09:36:08;31.45;;;16.25;;
46651;SDS011;32377;52.182;5.398;2024-03-22T09:38:34;33.58;;;15.82;;
46651;SDS011;32377;52.182;5.398;2024-03-22T09:40:59;26.42;;;14.57;;
46651;SDS011;32377;52.182;5.398;2024-03-22T09:43:26;35.88;;;16.77;;
46651;SDS011;32377;52.182;5.398;2024-03-22T09:45:54;26.90;;;15.45;;
46651;SDS011;32377;52.182;5.398;2024-03-22T09:48:20;28.52;;;16.20;;
46651;SDS011;32377;52.182;5.398;2024-03-22T09:50:47;29.13;;;14.70;;
46651;SDS011;32377;52.182;5.398;2024-03-22T09:53:13;33.33;;;16.30;;
46651;SDS011;32377;52.182;5.398;2024-03-22T09:55:42;29.00;;;15.38;;
46651;SDS011;32377;52.182;5.398;2024-03-22T09:58:10;25.25;;;15.07;;
46651;SDS011;32377;52.182;5.398;2024-03-22T10:00:36;31.08;;;15.25;;
46651;SDS011;32377;52.182;5.398;2024-03-22T10:03:01;28.63;;;14.48;;
46651;SDS011;32377;52.182;5.398;2024-03-22T10:05:29;29.42;;;15.10;;
46651;SDS011;32377;52.182;5.398;2024-03-22T10:07:55;32.15;;;14.95;;
46651;SDS011;32377;52.182;5.398;2024-03-22T10:10:21;26.33;;;13.90;;
46651;SDS011;32377;52.182;5.398;2024-03-22T10:12:46;27.35;;;14.43;;
46651;SDS011;32377;52.182;5.398;2024-03-22T10:15:12;25.55;;;13.73;;
46651;SDS011;32377;52.182;5.398;2024-03-22T10:17:39;30.85;;;15.52;;
46651;SDS011;32377;52.182;5.398;2024-03-22T10:20:05;26.90;;;14.30;;
46651;SDS011;32377;52.182;5.398;2024-03-22T10:22:57;23.92;;;13.93;;
46651;SDS011;32377;52.182;5.398;2024-03-22T10:25:25;25.70;;;14.10;;
46651;SDS011;32377;52.182;5.398;2024-03-22T10:27:53;21.65;;;14.18;;
46651;SDS011;32377;52.182;5.398;2024-03-22T10:30:19;24.23;;;14.68;;
46651;SDS011;32377;52.182;5.398;2024-03-22T10:32:45;26.52;;;14.30;;
46651;SDS011;32377;52.182;5.398;2024-03-22T10:35:13;23.90;;;14.45;;
46651;SDS011;32377;52.182;5.398;2024-03-22T10:37:40;23.45;;;13.85;;
46651;SDS011;32377;52.182;5.398;2024-03-22T10:40:07;20.38;;;13.13;;
46651;SDS011;32377;52.182;5.398;2024-03-22T10:42:38;22.88;;;13.05;;
46651;SDS011;32377;52.182;5.398;2024-03-22T10:45:05;24.92;;;13.20;;
46651;SDS011;32377;52.182;5.398;2024-03-22T10:47:32;22.75;;;13.32;;
46651;SDS011;32377;52.182;5.398;2024-03-22T10:52:39;20.30;;;12.32;;
46651;SDS011;32377;52.182;5.398;2024-03-22T10:55:18;22.95;;;13.68;;
46651;SDS011;32377;52.182;5.398;2024-03-22T10:58:50;22.27;;;12.65;;
46651;SDS011;32377;52.182;5.398;2024-03-22T11:01:24;21.02;;;13.50;;
46651;SDS011;32377;52.182;5.398;2024-03-22T11:03:51;24.40;;;13.35;;
46651;SDS011;32377;52.182;5.398;2024-03-22T11:06:37;24.90;;;13.60;;
46651;SDS011;32377;52.182;5.398;2024-03-22T11:09:03;20.88;;;12.50;;
46651;SDS011;32377;52.182;5.398;2024-03-22T11:11:34;22.02;;;12.20;;
46651;SDS011;32377;52.182;5.398;2024-03-22T11:14:02;21.05;;;13.02;;
46651;SDS011;32377;52.182;5.398;2024-03-22T11:16:28;24.33;;;14.43;;
46651;SDS011;32377;52.182;5.398;2024-03-22T11:18:55;19.92;;;12.32;;
46651;SDS011;32377;52.182;5.398;2024-03-22T11:21:20;21.42;;;12.43;;
46651;SDS011;32377;52.182;5.398;2024-03-22T11:23:46;21.30;;;11.95;;
46651;SDS011;32377;52.182;5.398;2024-03-22T11:26:12;18.55;;;11.13;;
46651;SDS011;32377;52.182;5.398;2024-03-22T11:28:38;18.50;;;10.80;;
46651;SDS011;32377;52.182;5.398;2024-03-22T11:31:04;17.42;;;11.45;;
46651;SDS011;32377;52.182;5.398;2024-03-22T11:33:30;18.05;;;10.85;;
46651;SDS011;32377;52.182;5.398;2024-03-22T11:35:59;15.52;;;10.27;;
46651;SDS011;32377;52.182;5.398;2024-03-22T11:38:26;15.20;;;9.70;;
46651;SDS011;32377;52.182;5.398;2024-03-22T11:40:55;14.23;;;9.60;;
46651;SDS011;32377;52.182;5.398;2024-03-22T11:43:22;14.98;;;9.35;;
46651;SDS011;32377;52.182;5.398;2024-03-22T11:45:48;13.55;;;9.07;;
46651;SDS011;32377;52.182;5.398;2024-03-22T11:48:14;14.25;;;8.70;;
46651;SDS011;32377;52.182;5.398;2024-03-22T11:50:41;11.93;;;8.13;;
46651;SDS011;32377;52.182;5.398;2024-03-22T11:53:07;10.63;;;7.63;;
46651;SDS011;32377;52.182;5.398;2024-03-22T11:55:35;10.63;;;7.93;;
46651;SDS011;32377;52.182;5.398;2024-03-22T11:58:00;9.65;;;7.20;;
46651;SDS011;32377;52.182;5.398;2024-03-22T12:00:26;9.73;;;7.10;;
46651;SDS011;32377;52.182;5.398;2024-03-22T12:02:53;11.80;;;7.60;;
46651;SDS011;32377;52.182;5.398;2024-03-22T12:05:20;11.57;;;7.70;;
46651;SDS011;32377;52.182;5.398;2024-03-22T12:07:46;10.45;;;6.10;;
46651;SDS011;32377;52.182;5.398;2024-03-22T12:10:12;10.57;;;7.25;;
46651;SDS011;32377;52.182;5.398;2024-03-22T12:12:38;11.13;;;7.75;;
46651;SDS011;32377;52.182;5.398;2024-03-22T12:15:04;12.70;;;7.47;;
46651;SDS011;32377;52.182;5.398;2024-03-22T12:17:30;13.63;;;7.90;;
46651;SDS011;32377;52.182;5.398;2024-03-22T12:19:55;14.13;;;8.48;;
46651;SDS011;32377;52.182;5.398;2024-03-22T12:22:24;15.57;;;9.05;;
46651;SDS011;32377;52.182;5.398;2024-03-22T12:24:50;12.77;;;8.80;;
46651;SDS011;32377;52.182;5.398;2024-03-22T12:27:16;16.35;;;9.65;;
46651;SDS011;32377;52.182;5.398;2024-03-22T12:29:42;12.75;;;9.05;;
46651;SDS011;32377;52.182;5.398;2024-03-22T12:32:08;15.93;;;10.15;;
46651;SDS011;32377;52.182;5.398;2024-03-22T12:34:35;17.10;;;10.00;;
46651;SDS011;32377;52.182;5.398;2024-03-22T12:37:01;15.50;;;10.48;;
46651;SDS011;32377;52.182;5.398;2024-03-22T12:39:27;18.23;;;11.20;;
46651;SDS011;32377;52.182;5.398;2024-03-22T12:41:53;16.08;;;10.70;;
46651;SDS011;32377;52.182;5.398;2024-03-22T12:44:19;22.35;;;12.38;;
46651;SDS011;32377;52.182;5.398;2024-03-22T12:46:45;27.17;;;14.05;;
46651;SDS011;32377;52.182;5.398;2024-03-22T12:49:11;26.48;;;15.07;;
46651;SDS011;32377;52.182;5.398;2024-03-22T12:51:36;25.35;;;14.65;;
46651;SDS011;32377;52.182;5.398;2024-03-22T12:54:02;32.38;;;15.10;;
46651;SDS011;32377;52.182;5.398;2024-03-22T12:56:29;33.50;;;16.10;;
46651;SDS011;32377;52.182;5.398;2024-03-22T12:58:55;27.48;;;14.93;;
46651;SDS011;32377;52.182;5.398;2024-03-22T13:01:20;31.95;;;16.02;;
46651;SDS011;32377;52.182;5.398;2024-03-22T13:03:47;33.50;;;14.68;;
46651;SDS011;32377;52.182;5.398;2024-03-22T13:06:12;28.63;;;14.63;;
46651;SDS011;32377;52.182;5.398;2024-03-22T13:08:38;33.15;;;15.10;;
46651;SDS011;32377;52.182;5.398;2024-03-22T13:11:04;30.70;;;14.40;;
46651;SDS011;32377;52.182;5.398;2024-03-22T13:13:30;26.77;;;13.68;;
46651;SDS011;32377;52.182;5.398;2024-03-22T13:15:56;29.58;;;14.65;;
46651;SDS011;32377;52.182;5.398;2024-03-22T13:18:23;36.75;;;14.85;;
46651;SDS011;32377;52.182;5.398;2024-03-22T13:20:49;27.58;;;15.50;;
46651;SDS011;32377;52.182;5.398;2024-03-22T13:23:14;30.17;;;15.45;;
46651;SDS011;32377;52.182;5.398;2024-03-22T13:25:40;28.08;;;14.50;;
46651;SDS011;32377;52.182;5.398;2024-03-22T13:28:06;30.50;;;16.00;;
46651;SDS011;32377;52.182;5.398;2024-03-22T13:30:31;29.33;;;15.77;;
46651;SDS011;32377;52.182;5.398;2024-03-22T13:32:57;30.42;;;16.13;;
46651;SDS011;32377;52.182;5.398;2024-03-22T13:35:24;34.45;;;15.70;;
46651;SDS011;32377;52.182;5.398;2024-03-22T13:37:50;22.70;;;14.43;;
46651;SDS011;32377;52.182;5.398;2024-03-22T13:40:15;28.52;;;15.20;;
46651;SDS011;32377;52.182;5.398;2024-03-22T13:42:41;33.53;;;16.23;;
46651;SDS011;32377;52.182;5.398;2024-03-22T13:45:07;35.38;;;16.45;;
46651;SDS011;32377;52.182;5.398;2024-03-22T13:47:33;32.05;;;15.80;;
46651;SDS011;32377;52.182;5.398;2024-03-22T13:49:58;36.05;;;16.45;;
46651;SDS011;32377;52.182;5.398;2024-03-22T13:52:24;33.70;;;15.75;;
46651;SDS011;32377;52.182;5.398;2024-03-22T13:54:50;32.60;;;15.68;;
46651;SDS011;32377;52.182;5.398;2024-03-22T13:57:16;31.63;;;16.23;;
46651;SDS011;32377;52.182;5.398;2024-03-22T13:59:42;32.85;;;16.33;;
46651;SDS011;32377;52.182;5.398;2024-03-22T14:02:07;32.70;;;16.27;;
46651;SDS011;32377;52.182;5.398;2024-03-22T14:04:34;35.08;;;16.90;;
46651;SDS011;32377;52.182;5.398;2024-03-22T14:07:00;34.47;;;16.42;;
46651;SDS011;32377;52.182;5.398;2024-03-22T14:09:29;39.20;;;16.63;;
46651;SDS011;32377;52.182;5.398;2024-03-22T14:11:58;32.35;;;17.02;;
46651;SDS011;32377;52.182;5.398;2024-03-22T14:14:24;32.60;;;15.75;;
46651;SDS011;32377;52.182;5.398;2024-03-22T14:16:51;35.58;;;17.40;;
46651;SDS011;32377;52.182;5.398;2024-03-22T14:19:17;35.08;;;15.50;;
46651;SDS011;32377;52.182;5.398;2024-03-22T14:21:44;37.53;;;16.85;;
46651;SDS011;32377;52.182;5.398;2024-03-22T14:24:13;43.58;;;16.88;;